< < Back
Terminal Aerodrome Forecast


Current Version              Previous Versions:   1  2  3  4  5  6  7  8  9  

Terminal Aerodrome Forecast

464
FTUS44 KBMX 231120
TAFMGM
TAF
KMGM 231120Z 2312/2412 32002KT P6SM SKC
     FM231700 33006KT P6SM SKC=



Latest METAR

701
SAUS80 KWBC 241500 RRC
MTRMGM
METAR KMGM 241453Z VRB04KT 10SM CLR 26/15 A3014 RMK AO2 SLP202 T02610150
51008


USA.gov is the U.S. government's official web portal to all federal, state and local government web resources and services.